sensor_id;sensor_type;location;lat;lon;timestamp;P1;durP1;ratioP1;P2;durP2;ratioP2
14603;SDS011;7388;51.078;13.740;2022-11-20T00:01:28;23.20;;;15.93;;
14603;SDS011;7388;51.078;13.740;2022-11-20T00:03:54;20.30;;;15.57;;
14603;SDS011;7388;51.078;13.740;2022-11-20T00:06:23;28.25;;;16.77;;
14603;SDS011;7388;51.078;13.740;2022-11-20T00:08:49;26.00;;;16.83;;
14603;SDS011;7388;51.078;13.740;2022-11-20T00:11:17;23.10;;;14.60;;
14603;SDS011;7388;51.078;13.740;2022-11-20T00:13:44;25.08;;;14.73;;
14603;SDS011;7388;51.078;13.740;2022-11-20T00:16:12;26.10;;;16.00;;
14603;SDS011;7388;51.078;13.740;2022-11-20T00:18:39;22.85;;;14.70;;
14603;SDS011;7388;51.078;13.740;2022-11-20T00:21:09;26.40;;;17.25;;
14603;SDS011;7388;51.078;13.740;2022-11-20T00:23:37;24.75;;;15.25;;
14603;SDS011;7388;51.078;13.740;2022-11-20T00:26:06;25.80;;;15.97;;
14603;SDS011;7388;51.078;13.740;2022-11-20T00:28:34;31.05;;;16.67;;
14603;SDS011;7388;51.078;13.740;2022-11-20T00:31:00;23.33;;;14.93;;
14603;SDS011;7388;51.078;13.740;2022-11-20T00:33:28;27.48;;;15.77;;
14603;SDS011;7388;51.078;13.740;2022-11-20T00:35:58;28.05;;;17.73;;
14603;SDS011;7388;51.078;13.740;2022-11-20T00:38:34;28.75;;;15.43;;
14603;SDS011;7388;51.078;13.740;2022-11-20T00:41:01;22.43;;;14.47;;
14603;SDS011;7388;51.078;13.740;2022-11-20T00:43:29;21.80;;;14.50;;
14603;SDS011;7388;51.078;13.740;2022-11-20T00:46:17;24.70;;;14.70;;
14603;SDS011;7388;51.078;13.740;2022-11-20T00:48:42;24.83;;;16.75;;
14603;SDS011;7388;51.078;13.740;2022-11-20T00:51:09;22.35;;;15.25;;
14603;SDS011;7388;51.078;13.740;2022-11-20T00:53:36;23.17;;;15.98;;
14603;SDS011;7388;51.078;13.740;2022-11-20T00:56:03;22.60;;;13.97;;
14603;SDS011;7388;51.078;13.740;2022-11-20T00:58:32;20.75;;;13.23;;
14603;SDS011;7388;51.078;13.740;2022-11-20T01:00:59;24.27;;;14.82;;
14603;SDS011;7388;51.078;13.740;2022-11-20T01:03:33;25.58;;;14.02;;
14603;SDS011;7388;51.078;13.740;2022-11-20T01:06:05;27.08;;;14.93;;
14603;SDS011;7388;51.078;13.740;2022-11-20T01:08:34;22.30;;;14.77;;
14603;SDS011;7388;51.078;13.740;2022-11-20T01:11:05;24.88;;;15.07;;
14603;SDS011;7388;51.078;13.740;2022-11-20T01:13:33;23.55;;;14.75;;
14603;SDS011;7388;51.078;13.740;2022-11-20T01:16:11;22.25;;;14.15;;
14603;SDS011;7388;51.078;13.740;2022-11-20T01:18:39;24.73;;;15.23;;
14603;SDS011;7388;51.078;13.740;2022-11-20T01:21:10;26.63;;;16.10;;
14603;SDS011;7388;51.078;13.740;2022-11-20T01:23:39;25.15;;;15.50;;
14603;SDS011;7388;51.078;13.740;2022-11-20T01:26:07;25.15;;;13.90;;
14603;SDS011;7388;51.078;13.740;2022-11-20T01:28:34;23.45;;;14.98;;
14603;SDS011;7388;51.078;13.740;2022-11-20T01:31:00;26.88;;;15.20;;
14603;SDS011;7388;51.078;13.740;2022-11-20T01:33:35;24.55;;;14.48;;
14603;SDS011;7388;51.078;13.740;2022-11-20T01:36:04;21.07;;;13.97;;
14603;SDS011;7388;51.078;13.740;2022-11-20T01:38:31;27.80;;;13.90;;
14603;SDS011;7388;51.078;13.740;2022-11-20T01:40:57;25.17;;;14.50;;
14603;SDS011;7388;51.078;13.740;2022-11-20T01:43:23;25.53;;;14.17;;
14603;SDS011;7388;51.078;13.740;2022-11-20T01:46:04;28.70;;;14.30;;
14603;SDS011;7388;51.078;13.740;2022-11-20T01:48:38;19.73;;;14.45;;
14603;SDS011;7388;51.078;13.740;2022-11-20T01:51:13;19.33;;;12.52;;
14603;SDS011;7388;51.078;13.740;2022-11-20T01:53:46;22.63;;;13.90;;
14603;SDS011;7388;51.078;13.740;2022-11-20T01:56:13;25.92;;;14.40;;
14603;SDS011;7388;51.078;13.740;2022-11-20T01:58:42;22.92;;;13.07;;
14603;SDS011;7388;51.078;13.740;2022-11-20T02:01:29;21.35;;;14.98;;
14603;SDS011;7388;51.078;13.740;2022-11-20T02:03:55;26.20;;;15.85;;
14603;SDS011;7388;51.078;13.740;2022-11-20T02:06:23;25.90;;;14.25;;
14603;SDS011;7388;51.078;13.740;2022-11-20T02:08:57;27.90;;;14.25;;
14603;SDS011;7388;51.078;13.740;2022-11-20T02:11:23;28.20;;;14.17;;
14603;SDS011;7388;51.078;13.740;2022-11-20T02:13:49;29.70;;;15.27;;
14603;SDS011;7388;51.078;13.740;2022-11-20T02:16:17;23.02;;;13.65;;
14603;SDS011;7388;51.078;13.740;2022-11-20T02:18:53;20.00;;;13.00;;
14603;SDS011;7388;51.078;13.740;2022-11-20T02:26:27;24.58;;;14.27;;
14603;SDS011;7388;51.078;13.740;2022-11-20T02:28:55;26.67;;;15.10;;
14603;SDS011;7388;51.078;13.740;2022-11-20T02:31:21;22.20;;;13.70;;
14603;SDS011;7388;51.078;13.740;2022-11-20T02:33:47;30.10;;;14.17;;
14603;SDS011;7388;51.078;13.740;2022-11-20T02:36:18;26.48;;;14.07;;
14603;SDS011;7388;51.078;13.740;2022-11-20T02:38:44;21.60;;;13.87;;
14603;SDS011;7388;51.078;13.740;2022-11-20T02:41:10;23.63;;;15.10;;
14603;SDS011;7388;51.078;13.740;2022-11-20T02:43:35;23.73;;;15.63;;
14603;SDS011;7388;51.078;13.740;2022-11-20T02:46:01;29.40;;;14.43;;
14603;SDS011;7388;51.078;13.740;2022-11-20T02:48:27;22.93;;;12.90;;
14603;SDS011;7388;51.078;13.740;2022-11-20T02:50:53;29.93;;;16.53;;
14603;SDS011;7388;51.078;13.740;2022-11-20T02:53:18;20.30;;;13.17;;
14603;SDS011;7388;51.078;13.740;2022-11-20T02:55:44;21.60;;;12.97;;
14603;SDS011;7388;51.078;13.740;2022-11-20T02:58:10;24.43;;;13.93;;
14603;SDS011;7388;51.078;13.740;2022-11-20T03:00:35;28.03;;;14.90;;
14603;SDS011;7388;51.078;13.740;2022-11-20T03:03:01;22.63;;;14.03;;
14603;SDS011;7388;51.078;13.740;2022-11-20T03:05:27;23.80;;;14.43;;
14603;SDS011;7388;51.078;13.740;2022-11-20T03:07:53;25.17;;;14.33;;
14603;SDS011;7388;51.078;13.740;2022-11-20T03:10:18;23.43;;;13.20;;
14603;SDS011;7388;51.078;13.740;2022-11-20T03:12:44;21.17;;;12.33;;
14603;SDS011;7388;51.078;13.740;2022-11-20T03:15:10;20.73;;;12.50;;
14603;SDS011;7388;51.078;13.740;2022-11-20T03:17:36;22.47;;;13.87;;
14603;SDS011;7388;51.078;13.740;2022-11-20T03:20:02;24.37;;;14.00;;
14603;SDS011;7388;51.078;13.740;2022-11-20T03:22:28;21.27;;;12.88;;
14603;SDS011;7388;51.078;13.740;2022-11-20T03:24:55;23.90;;;13.95;;
14603;SDS011;7388;51.078;13.740;2022-11-20T03:27:20;24.27;;;14.57;;
14603;SDS011;7388;51.078;13.740;2022-11-20T03:29:46;20.33;;;12.50;;
14603;SDS011;7388;51.078;13.740;2022-11-20T03:32:12;24.63;;;15.17;;
14603;SDS011;7388;51.078;13.740;2022-11-20T03:34:37;22.40;;;13.60;;
14603;SDS011;7388;51.078;13.740;2022-11-20T03:37:03;24.23;;;13.23;;
14603;SDS011;7388;51.078;13.740;2022-11-20T03:39:29;25.70;;;14.83;;
14603;SDS011;7388;51.078;13.740;2022-11-20T03:41:54;25.07;;;13.60;;
14603;SDS011;7388;51.078;13.740;2022-11-20T03:44:20;25.90;;;15.37;;
14603;SDS011;7388;51.078;13.740;2022-11-20T03:46:46;23.80;;;14.82;;
14603;SDS011;7388;51.078;13.740;2022-11-20T03:49:12;27.13;;;13.83;;
14603;SDS011;7388;51.078;13.740;2022-11-20T03:51:38;26.80;;;14.77;;
14603;SDS011;7388;51.078;13.740;2022-11-20T03:54:07;22.07;;;12.63;;
14603;SDS011;7388;51.078;13.740;2022-11-20T03:56:37;26.27;;;13.75;;
14603;SDS011;7388;51.078;13.740;2022-11-20T03:59:04;22.63;;;15.57;;
14603;SDS011;7388;51.078;13.740;2022-11-20T04:01:34;21.83;;;14.68;;
14603;SDS011;7388;51.078;13.740;2022-11-20T04:04:02;34.25;;;15.25;;
14603;SDS011;7388;51.078;13.740;2022-11-20T04:06:29;26.40;;;14.25;;
14603;SDS011;7388;51.078;13.740;2022-11-20T04:08:59;27.95;;;15.63;;
14603;SDS011;7388;51.078;13.740;2022-11-20T04:11:26;24.83;;;14.33;;
14603;SDS011;7388;51.078;13.740;2022-11-20T04:13:57;25.90;;;13.55;;
14603;SDS011;7388;51.078;13.740;2022-11-20T04:16:25;19.67;;;13.00;;
14603;SDS011;7388;51.078;13.740;2022-11-20T04:18:55;21.58;;;13.68;;
14603;SDS011;7388;51.078;13.740;2022-11-20T04:21:25;24.75;;;14.20;;
14603;SDS011;7388;51.078;13.740;2022-11-20T04:23:51;26.33;;;14.10;;
14603;SDS011;7388;51.078;13.740;2022-11-20T04:26:18;20.85;;;13.00;;
14603;SDS011;7388;51.078;13.740;2022-11-20T04:28:45;22.23;;;14.43;;
14603;SDS011;7388;51.078;13.740;2022-11-20T04:31:12;22.38;;;13.73;;
14603;SDS011;7388;51.078;13.740;2022-11-20T04:33:39;21.75;;;13.65;;
14603;SDS011;7388;51.078;13.740;2022-11-20T04:36:16;24.95;;;13.95;;
14603;SDS011;7388;51.078;13.740;2022-11-20T04:38:46;28.38;;;14.98;;
14603;SDS011;7388;51.078;13.740;2022-11-20T04:41:16;22.23;;;14.10;;
14603;SDS011;7388;51.078;13.740;2022-11-20T04:43:48;24.17;;;15.13;;
14603;SDS011;7388;51.078;13.740;2022-11-20T04:46:15;20.58;;;12.95;;
14603;SDS011;7388;51.078;13.740;2022-11-20T04:48:41;21.35;;;11.75;;
14603;SDS011;7388;51.078;13.740;2022-11-20T04:51:07;22.80;;;12.40;;
14603;SDS011;7388;51.078;13.740;2022-11-20T04:53:33;23.20;;;13.83;;
14603;SDS011;7388;51.078;13.740;2022-11-20T04:55:59;23.07;;;12.90;;
14603;SDS011;7388;51.078;13.740;2022-11-20T04:58:26;23.38;;;14.48;;
14603;SDS011;7388;51.078;13.740;2022-11-20T05:00:52;19.08;;;13.43;;
14603;SDS011;7388;51.078;13.740;2022-11-20T05:03:18;24.53;;;13.40;;
14603;SDS011;7388;51.078;13.740;2022-11-20T05:05:43;22.50;;;12.83;;
14603;SDS011;7388;51.078;13.740;2022-11-20T05:08:09;19.63;;;12.30;;
14603;SDS011;7388;51.078;13.740;2022-11-20T05:10:35;20.20;;;10.70;;
14603;SDS011;7388;51.078;13.740;2022-11-20T05:13:01;21.07;;;12.73;;
14603;SDS011;7388;51.078;13.740;2022-11-20T05:15:26;21.33;;;12.50;;
14603;SDS011;7388;51.078;13.740;2022-11-20T05:17:52;24.83;;;13.80;;
14603;SDS011;7388;51.078;13.740;2022-11-20T05:20:18;20.87;;;12.17;;
14603;SDS011;7388;51.078;13.740;2022-11-20T05:22:44;19.13;;;12.93;;
14603;SDS011;7388;51.078;13.740;2022-11-20T05:25:10;17.20;;;12.18;;
14603;SDS011;7388;51.078;13.740;2022-11-20T05:27:36;21.42;;;12.52;;
14603;SDS011;7388;51.078;13.740;2022-11-20T05:30:03;23.07;;;12.77;;
14603;SDS011;7388;51.078;13.740;2022-11-20T05:32:30;25.20;;;13.00;;
14603;SDS011;7388;51.078;13.740;2022-11-20T05:34:55;23.70;;;12.23;;
14603;SDS011;7388;51.078;13.740;2022-11-20T05:37:21;19.63;;;11.50;;
14603;SDS011;7388;51.078;13.740;2022-11-20T05:39:47;18.30;;;11.63;;
14603;SDS011;7388;51.078;13.740;2022-11-20T05:42:12;22.47;;;13.27;;
14603;SDS011;7388;51.078;13.740;2022-11-20T05:45:00;20.73;;;12.15;;
14603;SDS011;7388;51.078;13.740;2022-11-20T05:47:28;25.30;;;13.65;;
14603;SDS011;7388;51.078;13.740;2022-11-20T05:49:57;22.45;;;13.02;;
14603;SDS011;7388;51.078;13.740;2022-11-20T05:52:23;22.90;;;11.50;;
14603;SDS011;7388;51.078;13.740;2022-11-20T05:54:49;20.63;;;11.82;;
14603;SDS011;7388;51.078;13.740;2022-11-20T05:57:15;22.77;;;13.30;;
14603;SDS011;7388;51.078;13.740;2022-11-20T05:59:41;25.08;;;13.85;;
14603;SDS011;7388;51.078;13.740;2022-11-20T06:02:07;19.45;;;13.60;;
14603;SDS011;7388;51.078;13.740;2022-11-20T06:04:33;20.90;;;12.50;;
14603;SDS011;7388;51.078;13.740;2022-11-20T06:06:59;21.73;;;12.33;;
14603;SDS011;7388;51.078;13.740;2022-11-20T06:09:24;22.03;;;11.63;;
14603;SDS011;7388;51.078;13.740;2022-11-20T06:11:50;24.37;;;11.53;;
14603;SDS011;7388;51.078;13.740;2022-11-20T06:14:16;26.23;;;12.70;;
14603;SDS011;7388;51.078;13.740;2022-11-20T06:16:41;25.23;;;13.50;;
14603;SDS011;7388;51.078;13.740;2022-11-20T06:19:07;19.77;;;12.67;;
14603;SDS011;7388;51.078;13.740;2022-11-20T06:21:33;27.57;;;14.27;;
14603;SDS011;7388;51.078;13.740;2022-11-20T06:23:58;19.67;;;11.97;;
14603;SDS011;7388;51.078;13.740;2022-11-20T06:26:25;23.33;;;15.80;;
14603;SDS011;7388;51.078;13.740;2022-11-20T06:28:52;26.10;;;12.75;;
14603;SDS011;7388;51.078;13.740;2022-11-20T06:31:19;20.27;;;11.45;;
14603;SDS011;7388;51.078;13.740;2022-11-20T06:33:46;27.75;;;13.05;;
14603;SDS011;7388;51.078;13.740;2022-11-20T06:36:13;22.02;;;11.90;;
14603;SDS011;7388;51.078;13.740;2022-11-20T06:38:41;24.23;;;13.63;;
14603;SDS011;7388;51.078;13.740;2022-11-20T06:41:10;22.75;;;13.20;;
14603;SDS011;7388;51.078;13.740;2022-11-20T06:43:37;23.58;;;15.48;;
14603;SDS011;7388;51.078;13.740;2022-11-20T06:46:03;23.10;;;14.73;;
14603;SDS011;7388;51.078;13.740;2022-11-20T06:48:29;25.87;;;15.17;;
14603;SDS011;7388;51.078;13.740;2022-11-20T06:50:55;37.85;;;16.80;;
14603;SDS011;7388;51.078;13.740;2022-11-20T06:53:22;29.33;;;17.17;;
14603;SDS011;7388;51.078;13.740;2022-11-20T06:55:48;32.33;;;18.13;;
14603;SDS011;7388;51.078;13.740;2022-11-20T06:58:14;30.92;;;16.98;;
14603;SDS011;7388;51.078;13.740;2022-11-20T07:00:41;28.95;;;17.60;;
14603;SDS011;7388;51.078;13.740;2022-11-20T07:03:07;25.33;;;15.80;;
14603;SDS011;7388;51.078;13.740;2022-11-20T07:05:35;30.05;;;15.30;;
14603;SDS011;7388;51.078;13.740;2022-11-20T07:08:01;23.27;;;14.45;;
14603;SDS011;7388;51.078;13.740;2022-11-20T07:10:28;26.10;;;14.15;;
14603;SDS011;7388;51.078;13.740;2022-11-20T07:12:53;25.37;;;15.20;;
14603;SDS011;7388;51.078;13.740;2022-11-20T07:15:20;24.20;;;12.82;;
14603;SDS011;7388;51.078;13.740;2022-11-20T07:17:47;24.05;;;12.25;;
14603;SDS011;7388;51.078;13.740;2022-11-20T07:20:13;19.23;;;11.75;;
14603;SDS011;7388;51.078;13.740;2022-11-20T07:22:39;23.73;;;14.88;;
14603;SDS011;7388;51.078;13.740;2022-11-20T07:25:06;24.97;;;14.40;;
14603;SDS011;7388;51.078;13.740;2022-11-20T07:27:32;24.92;;;13.70;;
14603;SDS011;7388;51.078;13.740;2022-11-20T07:29:58;22.33;;;13.25;;
14603;SDS011;7388;51.078;13.740;2022-11-20T07:32:24;25.33;;;14.23;;
14603;SDS011;7388;51.078;13.740;2022-11-20T07:34:50;24.77;;;13.73;;
14603;SDS011;7388;51.078;13.740;2022-11-20T07:37:16;25.80;;;14.17;;
14603;SDS011;7388;51.078;13.740;2022-11-20T07:39:41;20.83;;;13.93;;
14603;SDS011;7388;51.078;13.740;2022-11-20T07:42:07;27.10;;;14.48;;
14603;SDS011;7388;51.078;13.740;2022-11-20T07:44:34;20.10;;;12.80;;
14603;SDS011;7388;51.078;13.740;2022-11-20T07:47:00;22.08;;;13.75;;
14603;SDS011;7388;51.078;13.740;2022-11-20T07:49:26;24.40;;;14.25;;
14603;SDS011;7388;51.078;13.740;2022-11-20T07:51:52;24.27;;;13.83;;
14603;SDS011;7388;51.078;13.740;2022-11-20T07:54:20;26.73;;;13.27;;
14603;SDS011;7388;51.078;13.740;2022-11-20T07:56:47;21.02;;;13.38;;
14603;SDS011;7388;51.078;13.740;2022-11-20T07:59:13;24.40;;;15.65;;
14603;SDS011;7388;51.078;13.740;2022-11-20T08:01:40;25.67;;;14.82;;
14603;SDS011;7388;51.078;13.740;2022-11-20T08:04:07;35.47;;;15.07;;
14603;SDS011;7388;51.078;13.740;2022-11-20T08:06:33;23.48;;;14.55;;
14603;SDS011;7388;51.078;13.740;2022-11-20T08:08:59;26.27;;;16.50;;
14603;SDS011;7388;51.078;13.740;2022-11-20T08:11:25;28.50;;;16.27;;
14603;SDS011;7388;51.078;13.740;2022-11-20T08:14:09;29.45;;;18.02;;
14603;SDS011;7388;51.078;13.740;2022-11-20T08:16:42;27.38;;;14.32;;
14603;SDS011;7388;51.078;13.740;2022-11-20T08:19:12;25.48;;;17.17;;
14603;SDS011;7388;51.078;13.740;2022-11-20T08:21:39;26.23;;;15.55;;
14603;SDS011;7388;51.078;13.740;2022-11-20T08:24:05;27.55;;;16.02;;
14603;SDS011;7388;51.078;13.740;2022-11-20T08:26:32;28.77;;;17.50;;
14603;SDS011;7388;51.078;13.740;2022-11-20T08:28:59;28.17;;;17.00;;
14603;SDS011;7388;51.078;13.740;2022-11-20T08:31:25;45.77;;;18.20;;
14603;SDS011;7388;51.078;13.740;2022-11-20T08:33:52;33.10;;;18.95;;
14603;SDS011;7388;51.078;13.740;2022-11-20T08:36:18;29.25;;;18.40;;
14603;SDS011;7388;51.078;13.740;2022-11-20T08:38:48;27.60;;;18.73;;
14603;SDS011;7388;51.078;13.740;2022-11-20T08:41:14;27.35;;;17.40;;
14603;SDS011;7388;51.078;13.740;2022-11-20T08:43:50;29.58;;;18.33;;
14603;SDS011;7388;51.078;13.740;2022-11-20T08:46:17;32.65;;;17.42;;
14603;SDS011;7388;51.078;13.740;2022-11-20T08:48:43;27.42;;;17.80;;
14603;SDS011;7388;51.078;13.740;2022-11-20T08:51:10;29.20;;;18.58;;
14603;SDS011;7388;51.078;13.740;2022-11-20T08:53:36;29.63;;;17.92;;
14603;SDS011;7388;51.078;13.740;2022-11-20T08:56:03;23.23;;;15.77;;
14603;SDS011;7388;51.078;13.740;2022-11-20T08:58:29;25.52;;;16.15;;
14603;SDS011;7388;51.078;13.740;2022-11-20T09:00:55;23.70;;;16.17;;
14603;SDS011;7388;51.078;13.740;2022-11-20T09:03:21;27.05;;;16.08;;
14603;SDS011;7388;51.078;13.740;2022-11-20T09:05:47;24.02;;;15.38;;
14603;SDS011;7388;51.078;13.740;2022-11-20T09:08:13;24.70;;;15.95;;
14603;SDS011;7388;51.078;13.740;2022-11-20T09:10:39;28.33;;;16.23;;
14603;SDS011;7388;51.078;13.740;2022-11-20T09:13:05;31.37;;;19.40;;
14603;SDS011;7388;51.078;13.740;2022-11-20T09:15:31;25.92;;;17.27;;
14603;SDS011;7388;51.078;13.740;2022-11-20T09:17:58;24.80;;;13.90;;
14603;SDS011;7388;51.078;13.740;2022-11-20T09:20:26;26.88;;;18.35;;
14603;SDS011;7388;51.078;13.740;2022-11-20T09:22:56;26.77;;;17.73;;
14603;SDS011;7388;51.078;13.740;2022-11-20T09:25:23;21.13;;;15.20;;
14603;SDS011;7388;51.078;13.740;2022-11-20T09:27:54;54.65;;;36.78;;
14603;SDS011;7388;51.078;13.740;2022-11-20T09:30:23;32.42;;;19.02;;
14603;SDS011;7388;51.078;13.740;2022-11-20T09:32:49;89.90;;;58.20;;
14603;SDS011;7388;51.078;13.740;2022-11-20T09:35:15;27.87;;;17.03;;
14603;SDS011;7388;51.078;13.740;2022-11-20T09:37:42;26.33;;;16.10;;
14603;SDS011;7388;51.078;13.740;2022-11-20T09:40:21;28.60;;;18.05;;
14603;SDS011;7388;51.078;13.740;2022-11-20T09:51:28;28.08;;;16.15;;
14603;SDS011;7388;51.078;13.740;2022-11-20T09:56:46;21.20;;;13.65;;
14603;SDS011;7388;51.078;13.740;2022-11-20T10:05:00;21.65;;;13.90;;
14603;SDS011;7388;51.078;13.740;2022-11-20T10:07:29;24.35;;;15.00;;
14603;SDS011;7388;51.078;13.740;2022-11-20T10:10:35;19.63;;;13.23;;
14603;SDS011;7388;51.078;13.740;2022-11-20T10:18:28;23.00;;;14.65;;
14603;SDS011;7388;51.078;13.740;2022-11-20T10:23:45;21.55;;;12.50;;
14603;SDS011;7388;51.078;13.740;2022-11-20T10:26:17;19.75;;;11.70;;
14603;SDS011;7388;51.078;13.740;2022-11-20T10:31:34;23.95;;;13.27;;
14603;SDS011;7388;51.078;13.740;2022-11-20T10:34:08;19.42;;;12.85;;
14603;SDS011;7388;51.078;13.740;2022-11-20T10:36:55;19.15;;;12.98;;
14603;SDS011;7388;51.078;13.740;2022-11-20T10:39:39;20.23;;;12.55;;
14603;SDS011;7388;51.078;13.740;2022-11-20T10:42:30;18.20;;;9.82;;
14603;SDS011;7388;51.078;13.740;2022-11-20T10:45:49;14.68;;;9.40;;
14603;SDS011;7388;51.078;13.740;2022-11-20T10:47:54;17.08;;;11.13;;
14603;SDS011;7388;51.078;13.740;2022-11-20T10:51:07;20.20;;;12.10;;
14603;SDS011;7388;51.078;13.740;2022-11-20T10:54:03;19.73;;;11.07;;
14603;SDS011;7388;51.078;13.740;2022-11-20T10:56:55;18.30;;;11.82;;
14603;SDS011;7388;51.078;13.740;2022-11-20T10:59:49;16.48;;;11.23;;
14603;SDS011;7388;51.078;13.740;2022-11-20T11:02:39;15.50;;;10.57;;
14603;SDS011;7388;51.078;13.740;2022-11-20T11:07:45;19.42;;;9.75;;
14603;SDS011;7388;51.078;13.740;2022-11-20T11:12:56;19.10;;;10.52;;
14603;SDS011;7388;51.078;13.740;2022-11-20T11:15:29;20.73;;;10.60;;
14603;SDS011;7388;51.078;13.740;2022-11-20T11:18:01;14.55;;;9.23;;
14603;SDS011;7388;51.078;13.740;2022-11-20T11:20:27;14.17;;;9.47;;
14603;SDS011;7388;51.078;13.740;2022-11-20T11:22:54;18.30;;;9.00;;
14603;SDS011;7388;51.078;13.740;2022-11-20T11:27:50;16.65;;;10.00;;
14603;SDS011;7388;51.078;13.740;2022-11-20T11:30:18;17.50;;;10.00;;
14603;SDS011;7388;51.078;13.740;2022-11-20T11:32:45;14.43;;;9.55;;
14603;SDS011;7388;51.078;13.740;2022-11-20T11:35:21;14.13;;;10.77;;
14603;SDS011;7388;51.078;13.740;2022-11-20T11:37:52;15.43;;;10.02;;
14603;SDS011;7388;51.078;13.740;2022-11-20T11:40:20;11.88;;;8.02;;
14603;SDS011;7388;51.078;13.740;2022-11-20T11:42:52;12.45;;;7.95;;
14603;SDS011;7388;51.078;13.740;2022-11-20T11:45:24;9.73;;;5.88;;
14603;SDS011;7388;51.078;13.740;2022-11-20T11:47:50;11.82;;;8.32;;
14603;SDS011;7388;51.078;13.740;2022-11-20T12:07:20;9.05;;;5.95;;
14603;SDS011;7388;51.078;13.740;2022-11-20T12:10:43;9.27;;;5.95;;
14603;SDS011;7388;51.078;13.740;2022-11-20T12:15:50;7.75;;;5.85;;
14603;SDS011;7388;51.078;13.740;2022-11-20T12:18:18;9.38;;;6.20;;
14603;SDS011;7388;51.078;13.740;2022-11-20T12:20:56;10.65;;;6.50;;
14603;SDS011;7388;51.078;13.740;2022-11-20T12:26:16;10.95;;;7.43;;
14603;SDS011;7388;51.078;13.740;2022-11-20T12:34:47;11.23;;;6.85;;
14603;SDS011;7388;51.078;13.740;2022-11-20T12:39:51;10.93;;;5.93;;
14603;SDS011;7388;51.078;13.740;2022-11-20T12:46:08;8.23;;;4.88;;
14603;SDS011;7388;51.078;13.740;2022-11-20T12:54:41;8.93;;;5.43;;
14603;SDS011;7388;51.078;13.740;2022-11-20T12:57:55;6.15;;;5.18;;
14603;SDS011;7388;51.078;13.740;2022-11-20T13:00:15;8.15;;;4.60;;
14603;SDS011;7388;51.078;13.740;2022-11-20T13:08:36;12.85;;;6.90;;
14603;SDS011;7388;51.078;13.740;2022-11-20T13:14:19;9.75;;;6.45;;
14603;SDS011;7388;51.078;13.740;2022-11-20T13:19:56;12.65;;;6.60;;
14603;SDS011;7388;51.078;13.740;2022-11-20T13:25:21;7.97;;;5.40;;
14603;SDS011;7388;51.078;13.740;2022-11-20T13:27:52;9.75;;;6.50;;
14603;SDS011;7388;51.078;13.740;2022-11-20T13:30:19;10.45;;;6.32;;
14603;SDS011;7388;51.078;13.740;2022-11-20T13:32:50;9.50;;;5.70;;
14603;SDS011;7388;51.078;13.740;2022-11-20T13:35:24;10.52;;;6.18;;
14603;SDS011;7388;51.078;13.740;2022-11-20T13:40:26;10.50;;;6.85;;
14603;SDS011;7388;51.078;13.740;2022-11-20T13:43:04;10.32;;;7.50;;
14603;SDS011;7388;51.078;13.740;2022-11-20T13:45:38;13.32;;;7.25;;
14603;SDS011;7388;51.078;13.740;2022-11-20T13:48:04;9.50;;;6.67;;
14603;SDS011;7388;51.078;13.740;2022-11-20T13:56:21;12.25;;;6.55;;
14603;SDS011;7388;51.078;13.740;2022-11-20T14:01:22;10.30;;;5.63;;
14603;SDS011;7388;51.078;13.740;2022-11-20T14:03:49;10.10;;;5.30;;
14603;SDS011;7388;51.078;13.740;2022-11-20T14:06:59;8.77;;;5.80;;
14603;SDS011;7388;51.078;13.740;2022-11-20T14:09:11;11.60;;;7.10;;
14603;SDS011;7388;51.078;13.740;2022-11-20T14:11:45;9.85;;;6.57;;
14603;SDS011;7388;51.078;13.740;2022-11-20T14:14:18;10.25;;;6.35;;
14603;SDS011;7388;51.078;13.740;2022-11-20T14:16:46;7.65;;;5.13;;
14603;SDS011;7388;51.078;13.740;2022-11-20T14:21:49;10.23;;;6.50;;
14603;SDS011;7388;51.078;13.740;2022-11-20T14:24:21;9.80;;;7.25;;
14603;SDS011;7388;51.078;13.740;2022-11-20T14:26:49;7.95;;;5.20;;
14603;SDS011;7388;51.078;13.740;2022-11-20T14:29:17;10.15;;;6.78;;
14603;SDS011;7388;51.078;13.740;2022-11-20T14:31:44;12.20;;;6.35;;
14603;SDS011;7388;51.078;13.740;2022-11-20T14:34:15;9.05;;;5.95;;
14603;SDS011;7388;51.078;13.740;2022-11-20T14:36:46;8.80;;;6.03;;
14603;SDS011;7388;51.078;13.740;2022-11-20T14:39:22;8.82;;;6.63;;
14603;SDS011;7388;51.078;13.740;2022-11-20T14:41:54;10.52;;;6.25;;
14603;SDS011;7388;51.078;13.740;2022-11-20T14:44:21;9.63;;;6.43;;
14603;SDS011;7388;51.078;13.740;2022-11-20T14:46:52;10.85;;;6.20;;
14603;SDS011;7388;51.078;13.740;2022-11-20T14:49:19;8.85;;;6.10;;
14603;SDS011;7388;51.078;13.740;2022-11-20T14:51:45;11.10;;;7.13;;
14603;SDS011;7388;51.078;13.740;2022-11-20T14:54:12;13.00;;;8.50;;
14603;SDS011;7388;51.078;13.740;2022-11-20T14:56:40;9.07;;;6.38;;
14603;SDS011;7388;51.078;13.740;2022-11-20T14:59:07;10.38;;;7.05;;
14603;SDS011;7388;51.078;13.740;2022-11-20T15:01:33;8.95;;;6.78;;
14603;SDS011;7388;51.078;13.740;2022-11-20T15:04:10;14.23;;;6.88;;
14603;SDS011;7388;51.078;13.740;2022-11-20T15:06:36;11.40;;;6.78;;
14603;SDS011;7388;51.078;13.740;2022-11-20T15:09:17;13.07;;;8.02;;
14603;SDS011;7388;51.078;13.740;2022-11-20T15:11:52;11.53;;;8.13;;
14603;SDS011;7388;51.078;13.740;2022-11-20T15:14:28;10.82;;;6.93;;
14603;SDS011;7388;51.078;13.740;2022-11-20T15:16:57;11.10;;;6.95;;
14603;SDS011;7388;51.078;13.740;2022-11-20T15:19:25;13.25;;;7.15;;
14603;SDS011;7388;51.078;13.740;2022-11-20T15:21:52;11.25;;;7.53;;
14603;SDS011;7388;51.078;13.740;2022-11-20T15:24:18;11.73;;;7.75;;
14603;SDS011;7388;51.078;13.740;2022-11-20T15:26:44;11.90;;;7.88;;
14603;SDS011;7388;51.078;13.740;2022-11-20T15:29:11;12.45;;;9.43;;
14603;SDS011;7388;51.078;13.740;2022-11-20T15:31:39;13.13;;;8.55;;
14603;SDS011;7388;51.078;13.740;2022-11-20T15:34:12;13.40;;;9.50;;
14603;SDS011;7388;51.078;13.740;2022-11-20T15:36:39;13.32;;;8.45;;
14603;SDS011;7388;51.078;13.740;2022-11-20T15:39:06;10.88;;;8.10;;
14603;SDS011;7388;51.078;13.740;2022-11-20T15:41:36;18.55;;;9.35;;
14603;SDS011;7388;51.078;13.740;2022-11-20T15:44:05;13.98;;;9.30;;
14603;SDS011;7388;51.078;13.740;2022-11-20T15:46:32;12.10;;;9.00;;
14603;SDS011;7388;51.078;13.740;2022-11-20T15:49:03;15.93;;;10.18;;
14603;SDS011;7388;51.078;13.740;2022-11-20T15:51:31;12.57;;;8.50;;
14603;SDS011;7388;51.078;13.740;2022-11-20T15:53:57;13.65;;;8.73;;
14603;SDS011;7388;51.078;13.740;2022-11-20T15:56:23;13.73;;;9.80;;
14603;SDS011;7388;51.078;13.740;2022-11-20T15:58:50;16.25;;;9.40;;
14603;SDS011;7388;51.078;13.740;2022-11-20T16:01:17;17.67;;;10.43;;
14603;SDS011;7388;51.078;13.740;2022-11-20T16:03:44;15.75;;;9.23;;
14603;SDS011;7388;51.078;13.740;2022-11-20T16:06:10;13.70;;;7.93;;
14603;SDS011;7388;51.078;13.740;2022-11-20T16:08:36;10.33;;;7.37;;
14603;SDS011;7388;51.078;13.740;2022-11-20T16:11:01;14.50;;;8.00;;
14603;SDS011;7388;51.078;13.740;2022-11-20T16:13:28;13.10;;;7.70;;
14603;SDS011;7388;51.078;13.740;2022-11-20T16:16:18;12.23;;;8.70;;
14603;SDS011;7388;51.078;13.740;2022-11-20T16:18:50;13.77;;;9.30;;
14603;SDS011;7388;51.078;13.740;2022-11-20T16:21:16;12.57;;;8.37;;
14603;SDS011;7388;51.078;13.740;2022-11-20T16:23:42;20.90;;;8.47;;
14603;SDS011;7388;51.078;13.740;2022-11-20T16:26:09;14.30;;;10.37;;
14603;SDS011;7388;51.078;13.740;2022-11-20T16:28:39;16.65;;;10.10;;